Historique des mesures à Cassis (13260), France
Quotidien Résumé Mai 4, 2020 Unités:  Métrique/US    US   Métrique
Quotidien Hebdomadaire Mensuel Annuel
  Maximum: Minimum: Moyenne:
Température: 81.5 °F /  27.5 °C 66 °F /  18.9 °C 73.6 °F /  23.1 °C
Point de rosée: 50.9 °F /  10.5 °C 46.6 °F /  8.1 °C 49.1 °F /  9.5 °C
Humidité: 53% 33% 43%
Vitesse du vent: 20.8mph /  33.5km/h - 11.4mph /  18.3km/h
Rafales: 30.4mph /  49km/h - -
Vent- - WSW
Pression: 29.7 in /  1006.0 hPa 29.7 in /  1004.2 hPa -
Précipitations: 0 in /  0.0 mm    
Historical Graphs
 
 
Mesures pour : Mai 4, 2020
Heure Temperature Point de rosée Pression Vent Vitesse du vent Rafales Humidité Pluie (par heure)
00:11 71.6 °F /  22 °C 46.6 °F /  8.1 °C 29.7in /  1005.7hPa North 11.9mph /  19.1km/h 30.4mph /  49km/h 41% 0in /  0.0mm
01:11 70.3 °F /  21.3 °C 47.3 °F /  8.5 °C 29.7in /  1005.8hPa West 18.3mph /  29.5km/h 19mph /  30.6km/h 44% 0in /  0.0mm
02:11 68.9 °F /  20.5 °C 48.4 °F /  9.1 °C 29.7in /  1005.8hPa WNW 20.8mph /  33.5km/h 24.9mph /  40km/h 48% 0in /  0.0mm
03:11 67.8 °F /  19.9 °C 48.6 °F /  9.2 °C 29.7in /  1005.3hPa NW 13.4mph /  21.6km/h 24.9mph /  40km/h 50% 0in /  0.0mm
04:11 67.3 °F /  19.6 °C 48.6 °F /  9.2 °C 29.7in /  1005.6hPa North 11.4mph /  18.4km/h 19.7mph /  31.7km/h 51% 0in /  0.0mm
05:11 66.7 °F /  19.3 °C 48.6 °F /  9.2 °C 29.7in /  1005.3hPa NW 6mph /  9.7km/h 21mph /  33.8km/h 52% 0in /  0.0mm
06:11 66.4 °F /  19.1 °C 48.2 °F /  9 °C 29.7in /  1004.7hPa North 16.3mph /  26.3km/h 21mph /  33.8km/h 52% 0in /  0.0mm
07:11 66 °F /  18.9 °C 48.4 °F /  9.1 °C 29.7in /  1004.8hPa WNW 12.3mph /  19.8km/h 25.7mph /  41.4km/h 53% 0in /  0.0mm
08:11 68.4 °F /  20.2 °C 48.6 °F /  9.2 °C 29.7in /  1005.0hPa NW 9.2mph /  14.8km/h 21.9mph /  35.3km/h 49% 0in /  0.0mm
09:11 68.4 °F /  20.2 °C 48.6 °F /  9.2 °C 29.7in /  1005.5hPa NNW 12.1mph /  19.4km/h 26.6mph /  42.8km/h 49% 0in /  0.0mm
10:11 70.2 °F /  21.2 °C 48.4 °F /  9.1 °C 29.7in /  1005.8hPa NW 15.4mph /  24.8km/h 19mph /  30.6km/h 46% 0in /  0.0mm
11:11 73.9 °F /  23.3 °C 48.7 °F /  9.3 °C 29.7in /  1004.9hPa NE 12.7mph /  20.5km/h 20.6mph /  33.1km/h 41% 0in /  0.0mm
12:11 75.9 °F /  24.4 °C 49.1 °F /  9.5 °C 29.7in /  1005.3hPa NNW 14.5mph /  23.4km/h 27.1mph /  43.6km/h 39% 0in /  0.0mm
13:11 76.5 °F /  24.7 °C 49.6 °F /  9.8 °C 29.7in /  1005.2hPa North 10.9mph /  17.6km/h 21mph /  33.8km/h 39% 0in /  0.0mm
14:11 78.4 °F /  25.8 °C 50.7 °F /  10.4 °C 29.7in /  1005.3hPa NNW 6.5mph /  10.4km/h 22.1mph /  35.6km/h 38% 0in /  0.0mm
15:11 79.3 °F /  26.3 °C 50 °F /  10 °C 29.7in /  1004.8hPa NW 8.7mph /  14km/h 21.7mph /  34.9km/h 36% 0in /  0.0mm
16:11 80.4 °F /  26.9 °C 50.2 °F /  10.1 °C 29.7in /  1004.5hPa WSW 13mph /  20.9km/h 21.2mph /  34.2km/h 35% 0in /  0.0mm
17:11 81.5 °F /  27.5 °C 49.5 °F /  9.7 °C 29.7in /  1004.2hPa NW 6mph /  9.7km/h 21.7mph /  34.9km/h 33% 0in /  0.0mm
18:11 81.3 °F /  27.4 °C 50.2 °F /  10.1 °C 29.7in /  1004.4hPa NW 11.9mph /  19.1km/h 21mph /  33.8km/h 34% 0in /  0.0mm
19:11 80.4 °F /  26.9 °C 50.9 °F /  10.5 °C 29.7in /  1004.8hPa WNW 7.1mph /  11.5km/h 14.3mph /  23km/h 36% 0in /  0.0mm
20:11 78.8 °F /  26 °C 50.2 °F /  10.1 °C 29.7in /  1004.8hPa NW 10.5mph /  16.9km/h 21.2mph /  34.2km/h 37% 0in /  0.0mm
21:11 76.6 °F /  24.8 °C 49.8 °F /  9.9 °C 29.7in /  1005.2hPa WNW 12.7mph /  20.5km/h 15.7mph /  25.2km/h 39% 0in /  0.0mm
22:11 75 °F /  23.9 °C 49.6 °F /  9.8 °C 29.7in /  1006.0hPa WNW 7.1mph /  11.5km/h 11.6mph /  18.7km/h 41% 0in /  0.0mm
23:11 74.1 °F /  23.4 °C 48.9 °F /  9.4 °C 29.7in /  1005.9hPa NNW 4.5mph /  7.2km/h 19mph /  30.6km/h 41% 0in /  0.0mm
Observations météo à CASSIS
WU-History script by Weather Underground - 2 mb